Main page
METAR-TAF:

METAR-TAF

Airports :

Izumo Airport

Izumo, Japan

latitude: 35-25N, longitude: 132-54E, elevation: 2 m

Current weather observation

The report was made 50 minutes ago, at 10:00 UTC
Wind 11 kt from the Northeast
Temperature 7°C
Humidity 81%
Pressure 1024 hPa
Visibility 10 km or more
Few clouds at a height of 700 ft
Scattered clouds at a height of 2000 ft
Broken clouds at a height of 2500 ft
light rain showers,

METAR: RJOC 221000Z 05011KT 9999 -SHRA FEW007 SCT020 BKN025 07/04 Q1024

Time: 19:50 (10:50 UTC)

Forecast

The report was made 5 hours and 45 minutes ago, at 05:05 UTC
Forecast valid from 22 at 06 UTC to 23 at 12 UTC
Wind 15 kt from the East/Northeast
Visibility 10 km or more
Few clouds at a height of 800 ft
Scattered clouds at a height of 1500 ft
Broken clouds at a height of 2500 ft
light rain showers,

TAF: RJOC 220505Z 2206/2312 06015KT 9999 -SHRA FEW008 SCT015 BKN025

Weather observations and forecasts of more than 4000 airports (METAR and TAF reports).

The available stations are represented by yellow and red dots on the map.

Hover mouse over dot to see the name of the station.

Then click to see weather observations and forecasts.

To change the map : click on the green buttons with a black cross to zoom in, on the green button with a dash to zoom out, or on the green arrows for adjacent maps.


METAR-TAF: